LS Concorde — ZDHJ7 — position and weather

sailwx.info

Track history (hours):
 
Tides and Currents Weather Stations Pressure Air Temp Water Temp Dewpoint Dewpoint Depression Visibility Wind Speed Wind Dir Waves Ship Positions

LS Concorde

Last reported at 2017-Sep-25 22:11 UTC. Time now 2017-Sep-26 03:52 UTC.
Position N 54°47' W 000°46'.

Length 99 m; draft 5 m.

Type: Tanker. MMSI: 236329000.

Date/timePositionNaut miles runAvg speedWind from/ knotsBaromVisibWave heightAir tempDewpointWater temp
2017-Sep-25 22:11N 54°47' W 000°46'212.7
2017-Sep-25 21:59N 54°46' W 000°50'612.8
2017-Sep-25 21:30N 54°44' W 001°00'5 0.2
2017-Sep-24 22:03N 54°40' W 001°07'210.1
2017-Sep-24 21:51N 54°41' W 001°04'2 4.8
2017-Sep-24 21:27N 54°42' W 001°01'0 0.1
2017-Sep-24 20:54N 54°42' W 001°01'0 0.0
2017-Sep-24 20:30N 54°42' W 001°01'0 0.0
2017-Sep-24 19:57N 54°42' W 001°01'0 0.0
2017-Sep-24 17:27N 54°42' W 001°01'0 0.0
2017-Sep-24 17:00N 54°42' W 001°01'0 0.1
2017-Sep-24 16:30N 54°42' W 001°01'0 0.0
2017-Sep-24 15:03N 54°42' W 001°01'0 0.1
2017-Sep-24 15:00N 54°42' W 001°01'0 0.0
2017-Sep-24 14:30N 54°42' W 001°01'0 0.0
2017-Sep-24 14:00N 54°42' W 001°01'0 0.0
2017-Sep-24 13:30N 54°42' W 001°01'0 0.0
2017-Sep-24 12:51N 54°42' W 001°01'0 0.0
2017-Sep-24 12:18N 54°42' W 001°01'0 0.0
2017-Sep-24 11:54N 54°42' W 001°01'0 0.0
2017-Sep-24 10:24N 54°42' W 001°01'0 0.0
2017-Sep-24 09:54N 54°42' W 001°01'0 0.0
2017-Sep-24 09:27N 54°42' W 001°01'0 0.0
2017-Sep-24 08:57N 54°42' W 001°01'0 0.0
2017-Sep-24 08:27N 54°42' W 001°01'0 0.2
2017-Sep-24 07:57N 54°42' W 001°01'0 0.0
2017-Sep-24 07:27N 54°42' W 001°01'0 0.0
2017-Sep-24 06:57N 54°42' W 001°01'0 0.0
2017-Sep-24 06:30N 54°42' W 001°01'0 0.0
2017-Sep-24 05:57N 54°42' W 001°01'0 0.0
2017-Sep-24 05:30N 54°42' W 001°01'0 0.0
2017-Sep-24 05:00N 54°42' W 001°01'0 0.1
2017-Sep-24 04:30N 54°42' W 001°01'0 0.1
2017-Sep-24 04:00N 54°42' W 001°01'0 0.1
2017-Sep-24 03:27N 54°42' W 001°01'0 0.0
2017-Sep-24 03:00N 54°42' W 001°01'0 0.0
2017-Sep-24 02:30N 54°42' W 001°01'0 0.0
2017-Sep-24 02:00N 54°42' W 001°01'0 0.0
2017-Sep-24 01:30N 54°42' W 001°01'0 0.0
2017-Sep-24 01:00N 54°42' W 001°01'0 0.0
2017-Sep-24 00:30N 54°42' W 001°01'0 0.0
2017-Sep-24 00:00N 54°42' W 001°01'0 0.0
2017-Sep-23 23:21N 54°42' W 001°01'0 0.0
2017-Sep-23 22:36N 54°42' W 001°01'0 0.0
2017-Sep-23 22:24N 54°42' W 001°01'0 0.0
2017-Sep-23 21:54N 54°42' W 001°01'0 0.0
2017-Sep-23 21:24N 54°42' W 001°01'0 0.0
2017-Sep-23 20:51N 54°42' W 001°01'235 5.5
2017-Sep-22 01:47N 51°47' E 003°20'0 0.0
2017-Sep-21 23:56N 51°47' E 003°20'0 0.1
2017-Sep-21 23:26N 51°47' E 003°20'0 0.0
2017-Sep-21 22:56N 51°47' E 003°20'0 0.0
2017-Sep-21 22:26N 51°47' E 003°20'0 0.0
2017-Sep-21 21:59N 51°47' E 003°20'0 0.0
2017-Sep-21 21:29N 51°47' E 003°20'0 0.0
2017-Sep-21 20:59N 51°47' E 003°20'0 0.0
2017-Sep-21 19:47N 51°47' E 003°20'0 0.2
2017-Sep-21 19:23N 51°47' E 003°20'0 0.1
2017-Sep-21 18:59N 51°47' E 003°20'0 0.0
2017-Sep-21 18:08N 51°47' E 003°20'0 0.0
2017-Sep-21 13:19N 51°47' E 003°20'310.3
2017-Sep-21 13:00N 51°44' E 003°18'612.5
2017-Sep-21 12:30N 51°38' E 003°22'612.0
2017-Sep-21 12:00N 51°32' E 003°25'611.3
2017-Sep-21 11:30N 51°28' E 003°31'5 9.6
2017-Sep-21 11:00N 51°25' E 003°38'511.2
2017-Sep-21 10:30N 51°22' E 003°45'4 7.2
2017-Sep-21 10:00N 51°20' E 003°49'0 0.4
2017-Sep-21 09:30N 51°20' E 003°49'1 2.4
2017-Sep-21 09:00N 51°18' E 003°50'4 7.9
2017-Sep-21 08:30N 51°14' E 003°49'2 4.2
2017-Sep-21 07:59N 51°12' E 003°48'0 0.0
2017-Sep-21 07:29N 51°12' E 003°48'0 0.0
2017-Sep-21 06:59N 51°12' E 003°48'0 0.0
2017-Sep-21 06:29N 51°12' E 003°48'0 0.0
2017-Sep-21 05:59N 51°12' E 003°48'0 0.0
2017-Sep-21 05:29N 51°12' E 003°48'0 0.0
2017-Sep-21 04:59N 51°12' E 003°48'0 0.0
2017-Sep-21 04:29N 51°12' E 003°48'0 0.0
2017-Sep-21 03:59N 51°12' E 003°48'0 0.0
2017-Sep-21 03:29N 51°12' E 003°48'0 0.0
2017-Sep-21 02:59N 51°12' E 003°48'0 0.0
2017-Sep-21 02:29N 51°12' E 003°48'0 0.0
2017-Sep-21 01:59N 51°12' E 003°48'0 0.0
2017-Sep-21 01:29N 51°12' E 003°48'0 0.0
2017-Sep-21 00:59N 51°12' E 003°48'0 0.0
2017-Sep-21 00:29N 51°12' E 003°48'0 0.0
2017-Sep-20 23:59N 51°12' E 003°48'0 0.0
2017-Sep-20 23:29N 51°12' E 003°48'0 0.0
2017-Sep-20 22:59N 51°12' E 003°48'0 0.0
2017-Sep-20 22:29N 51°12' E 003°48'0 0.0
2017-Sep-20 21:59N 51°12' E 003°48'0 0.0
2017-Sep-20 21:29N 51°12' E 003°48'0 0.0
2017-Sep-20 20:59N 51°12' E 003°48'0 0.0
2017-Sep-20 20:29N 51°12' E 003°48'0 0.0
2017-Sep-20 19:59N 51°12' E 003°48'0 0.0
2017-Sep-20 19:29N 51°12' E 003°48'0 0.0
2017-Sep-20 18:59N 51°12' E 003°48'0 0.0
2017-Sep-20 18:29N 51°12' E 003°48'0 0.0
2017-Sep-20 17:59N 51°12' E 003°48'0 0.0
2017-Sep-20 17:29N 51°12' E 003°48'0 0.0
2017-Sep-20 16:59N 51°12' E 003°48'0 0.0
2017-Sep-20 16:29N 51°12' E 003°48'0 0.0
2017-Sep-20 15:59N 51°12' E 003°48'0 0.0
2017-Sep-20 15:29N 51°12' E 003°48'0 0.0
2017-Sep-20 14:59N 51°12' E 003°48'0 0.0
2017-Sep-20 13:59N 51°12' E 003°48'0 0.0
2017-Sep-20 13:29N 51°12' E 003°48'0 0.0
2017-Sep-20 12:59N 51°12' E 003°48'0 0.0
2017-Sep-20 12:29N 51°12' E 003°48'0 0.0
2017-Sep-20 11:59N 51°12' E 003°48'0 0.0
2017-Sep-20 11:29N 51°12' E 003°48'0 0.0
2017-Sep-20 10:59N 51°12' E 003°48'0 0.0
2017-Sep-20 10:29N 51°12' E 003°48'0 0.0
2017-Sep-20 09:59N 51°12' E 003°48'0 0.0
2017-Sep-20 09:29N 51°12' E 003°48'0 0.0
2017-Sep-20 08:59N 51°12' E 003°48'0 0.0
2017-Sep-20 08:29N 51°12' E 003°48'0 0.0
2017-Sep-20 07:59N 51°12' E 003°48'0 0.0
2017-Sep-20 07:29N 51°12' E 003°48'0 0.0
2017-Sep-20 06:59N 51°12' E 003°48'0 0.0
2017-Sep-20 06:29N 51°12' E 003°48'0 0.0
2017-Sep-20 05:59N 51°12' E 003°48'0 0.0
2017-Sep-20 05:29N 51°12' E 003°48'0 0.0
2017-Sep-20 04:59N 51°12' E 003°48'0 0.0
2017-Sep-20 04:29N 51°12' E 003°48'0 0.0
2017-Sep-20 03:59N 51°12' E 003°48'0 0.0
2017-Sep-20 03:29N 51°12' E 003°48'0 0.0
2017-Sep-20 02:59N 51°12' E 003°48'0 0.0
2017-Sep-20 02:29N 51°12' E 003°48'0 0.0
2017-Sep-20 01:59N 51°12' E 003°48'0 0.0
2017-Sep-20 01:29N 51°12' E 003°48'0 0.0
2017-Sep-20 00:59N 51°12' E 003°48'0 0.0
2017-Sep-20 00:29N 51°12' E 003°48'0 0.0
2017-Sep-19 23:59N 51°12' E 003°48'0 0.0
2017-Sep-19 23:29N 51°12' E 003°48'0 0.0
2017-Sep-19 22:56N 51°12' E 003°48'0 0.0
2017-Sep-19 22:29N 51°12' E 003°48'0 0.0
2017-Sep-19 21:59N 51°12' E 003°48'0 0.0
2017-Sep-19 21:29N 51°12' E 003°48'0 0.0
2017-Sep-19 20:59N 51°12' E 003°48'0 0.0
2017-Sep-19 20:29N 51°12' E 003°48'0 0.0
2017-Sep-19 19:59N 51°12' E 003°48'0 0.0
2017-Sep-19 19:29N 51°12' E 003°48'0 0.0
2017-Sep-19 18:59N 51°12' E 003°48'0 0.0
2017-Sep-19 18:29N 51°12' E 003°48'0 0.0
2017-Sep-19 17:59N 51°12' E 003°48'0 0.0
2017-Sep-19 17:29N 51°12' E 003°48'0 0.0
2017-Sep-19 16:59N 51°12' E 003°48'0 0.0
2017-Sep-19 16:29N 51°12' E 003°48'0 0.0
2017-Sep-19 15:59N 51°12' E 003°48'0 0.0
2017-Sep-19 15:29N 51°12' E 003°48'0 0.0
2017-Sep-19 14:59N 51°12' E 003°48'0 0.0
2017-Sep-19 14:26N 51°12' E 003°48'0 0.0
2017-Sep-19 13:59N 51°12' E 003°48'0 0.0
2017-Sep-19 13:29N 51°12' E 003°48'0 0.0
2017-Sep-19 12:59N 51°12' E 003°48'0 0.0
2017-Sep-19 12:29N 51°12' E 003°48'0 0.0
2017-Sep-19 11:59N 51°12' E 003°48'0 0.0
2017-Sep-19 11:29N 51°12' E 003°48'0 0.0
2017-Sep-19 10:59N 51°12' E 003°48'0 0.1
2017-Sep-19 10:30N 51°12' E 003°48'2 4.4
2017-Sep-19 10:00N 51°15' E 003°49'4 7.1
2017-Sep-19 09:30N 51°18' E 003°50'2 3.6
2017-Sep-19 09:00N 51°20' E 003°49'0 0.1
2017-Sep-19 08:30N 51°20' E 003°49'1 1.7
2017-Sep-19 08:00N 51°21' E 003°49'5 9.7
2017-Sep-19 07:30N 51°23' E 003°42'510.8
2017-Sep-19 07:00N 51°25' E 003°34'4 8.6
2017-Sep-19 06:30N 51°25' E 003°28'510.3
2017-Sep-19 06:00N 51°24' E 003°19'5 9.2
2017-Sep-19 05:30N 51°24' E 003°12'5 9.4
2017-Sep-19 05:00N 51°24' E 003°04'5 9.5
2017-Sep-19 04:30N 51°22' E 002°57'510.2
2017-Sep-19 04:00N 51°22' E 002°49'4 8.0
2017-Sep-19 03:30N 51°23' E 002°43'2 4.6
2017-Sep-19 03:00N 51°26' E 002°44'0 0.8
2017-Sep-19 02:29N 51°26' E 002°45'0 0.6
2017-Sep-19 01:53N 51°26' E 002°44'0 0.4
2017-Sep-19 01:26N 51°26' E 002°44'2 4.8
2017-Sep-19 00:58N 51°24' E 002°42'4 8.0
2017-Sep-19 00:30N 51°22' E 002°37'4 7.6
2017-Sep-19 00:00N 51°22' E 002°31'4 7.5
2017-Sep-18 23:30N 51°21' E 002°25'4 7.2
2017-Sep-18 23:00N 51°18' E 002°21'4 7.3
2017-Sep-18 22:30N 51°16' E 002°16'4 8.5
2017-Sep-18 22:00N 51°14' E 002°10'5 9.2
2017-Sep-18 21:30N 51°12' E 002°04'4 8.1
2017-Sep-18 21:00N 51°10' E 001°58'4 7.9
2017-Sep-18 20:30N 51°08' E 001°52'4 8.5
2017-Sep-18 20:00N 51°06' E 001°47'4 8.2
2017-Sep-18 19:30N 51°03' E 001°42'4 8.3
2017-Sep-18 18:58N 50°60' E 001°37'4 8.2
2017-Sep-18 18:30N 50°57' E 001°34'4 8.1
2017-Sep-18 18:00N 50°54' E 001°29'8510.1
2017-Sep-18 09:35N 49°48' E 000°06'112.7
2017-Sep-18 09:30N 49°47' E 000°05'613.0
2017-Sep-18 09:00N 49°41' E 000°00'713.3
2017-Sep-18 08:30N 49°35' W 000°04'611.8
2017-Sep-18 08:00N 49°29' W 000°06'511.0
2017-Sep-18 07:30N 49°27' E 000°02'611.5
2017-Sep-18 07:00N 49°26' E 000°10'5 9.9
2017-Sep-18 06:30N 49°26' E 000°18'4 7.9
2017-Sep-18 06:00N 49°27' E 000°24'5 9.0
2017-Sep-18 05:26N 49°29' E 000°31'1 0.1
2017-Sep-17 07:55N 49°28' E 000°32'3 4.4
2017-Sep-17 07:18N 49°29' E 000°28'414.6
2017-Sep-17 07:00N 49°27' E 000°22'714.3
2017-Sep-17 06:30N 49°26' E 000°11'713.2
2017-Sep-17 06:00N 49°27' E 000°02'612.3
2017-Sep-17 05:30N 49°29' W 000°07'5 9.8
2017-Sep-17 05:00N 49°30' W 000°15'2 4.2
2017-Sep-17 04:30N 49°30' W 000°12'4 7.9
2017-Sep-17 04:00N 49°33' W 000°08'612.8
2017-Sep-17 03:30N 49°39' W 000°03'713.1
2017-Sep-17 03:00N 49°44' E 000°02'5013.7
2017-Sep-16 23:21N 50°29' E 000°38'413.1
2017-Sep-16 23:00N 50°33' E 000°36'612.0
2017-Sep-16 22:30N 50°37' E 000°43'713.2
2017-Sep-16 22:00N 50°41' E 000°51'612.6
2017-Sep-16 21:30N 50°45' E 000°59'612.1
2017-Sep-16 20:58N 50°48' E 001°08'511.7
2017-Sep-16 20:30N 50°52' E 001°15'611.4
2017-Sep-16 20:00N 50°56' E 001°20'611.5
2017-Sep-16 19:30N 51°01' E 001°26'612.4
2017-Sep-16 19:00N 51°05' E 001°33'612.9
2017-Sep-16 18:30N 51°10' E 001°40'713.4
2017-Sep-16 18:00N 51°15' E 001°47'714.1
2017-Sep-16 17:30N 51°20' E 001°54'713.3
2017-Sep-16 17:01N 51°25' E 002°01'612.7
2017-Sep-16 16:30N 51°22' E 002°10'612.9
2017-Sep-16 16:01N 51°21' E 002°20'713.8
2017-Sep-16 15:30N 51°23' E 002°31'713.4
2017-Sep-16 15:00N 51°22' E 002°41'611.7
2017-Sep-16 14:30N 51°22' E 002°51'612.8
2017-Sep-16 14:00N 51°24' E 003°01'612.7
2017-Sep-16 13:30N 51°24' E 003°11'713.4
2017-Sep-16 13:00N 51°25' E 003°21'714.1
2017-Sep-16 12:30N 51°26' E 003°33'611.9
2017-Sep-16 12:00N 51°25' E 003°42'612.5
2017-Sep-16 11:30N 51°21' E 003°49'611.8
2017-Sep-16 11:00N 51°24' E 003°57'3 6.4
2017-Sep-16 10:30N 51°24' E 004°02'4 8.9
2017-Sep-16 10:00N 51°23' E 004°09'4 7.5
2017-Sep-16 09:30N 51°21' E 004°14'2 3.7
2017-Sep-16 09:00N 51°21' E 004°17'0 0.0
2017-Sep-16 08:31N 51°21' E 004°17'1 2.2
2017-Sep-16 08:00N 51°20' E 004°18'4 7.2
2017-Sep-16 07:30N 51°17' E 004°21'1 2.0
2017-Sep-16 07:00N 51°16' E 004°21'0 0.0
2017-Sep-16 06:30N 51°16' E 004°21'0 0.0
2017-Sep-16 06:00N 51°16' E 004°21'0 0.0
2017-Sep-16 05:30N 51°16' E 004°21'0 0.0
2017-Sep-16 05:00N 51°16' E 004°21'0 0.0
2017-Sep-16 04:30N 51°16' E 004°21'0 0.0
2017-Sep-16 03:54N 51°16' E 004°21'0 0.0
2017-Sep-16 03:30N 51°16' E 004°21'0 0.0
2017-Sep-16 03:00N 51°16' E 004°21'0 0.0
2017-Sep-16 02:30N 51°16' E 004°21'0 0.0
2017-Sep-16 02:00N 51°16' E 004°21'0 0.0
2017-Sep-16 01:30N 51°16' E 004°21'0 0.0
2017-Sep-16 01:00N 51°16' E 004°21'0 0.0
2017-Sep-16 00:30N 51°16' E 004°21'0 0.0
2017-Sep-16 00:00N 51°16' E 004°21'0 0.0
2017-Sep-15 23:30N 51°16' E 004°21'0 0.0
2017-Sep-15 22:57N 51°16' E 004°21'0 0.0
2017-Sep-15 22:30N 51°16' E 004°21'  
Track history (hours):
 
Tides and Currents Weather Stations Pressure Air Temp Water Temp Dewpoint Dewpoint Depression Visibility Wind Speed Wind Dir Waves Ship Positions

LS Concorde

Last reported at 2017-Sep-25 22:11 UTC. Time now 2017-Sep-26 03:52 UTC.
Position N 54°47' W 000°46'.

Length 99 m; draft 5 m.

Type: Tanker. MMSI: 236329000.

Date/timePositionNaut miles runAvg speedWind from/ knotsBaromVisibWave heightAir tempDewpointWater temp
2017-Sep-25 22:11N 54°47' W 000°46'212.7
2017-Sep-25 21:59N 54°46' W 000°50'612.8
2017-Sep-25 21:30N 54°44' W 001°00'5 0.2
2017-Sep-24 22:03N 54°40' W 001°07'210.1
2017-Sep-24 21:51N 54°41' W 001°04'2 4.8
2017-Sep-24 21:27N 54°42' W 001°01'0 0.1
2017-Sep-24 20:54N 54°42' W 001°01'0 0.0
2017-Sep-24 20:30N 54°42' W 001°01'0 0.0
2017-Sep-24 19:57N 54°42' W 001°01'0 0.0
2017-Sep-24 17:27N 54°42' W 001°01'0 0.0
2017-Sep-24 17:00N 54°42' W 001°01'0 0.1
2017-Sep-24 16:30N 54°42' W 001°01'0 0.0
2017-Sep-24 15:03N 54°42' W 001°01'0 0.1
2017-Sep-24 15:00N 54°42' W 001°01'0 0.0
2017-Sep-24 14:30N 54°42' W 001°01'0 0.0
2017-Sep-24 14:00N 54°42' W 001°01'0 0.0
2017-Sep-24 13:30N 54°42' W 001°01'0 0.0
2017-Sep-24 12:51N 54°42' W 001°01'0 0.0
2017-Sep-24 12:18N 54°42' W 001°01'0 0.0
2017-Sep-24 11:54N 54°42' W 001°01'0 0.0
2017-Sep-24 10:24N 54°42' W 001°01'0 0.0
2017-Sep-24 09:54N 54°42' W 001°01'0 0.0
2017-Sep-24 09:27N 54°42' W 001°01'0 0.0
2017-Sep-24 08:57N 54°42' W 001°01'0 0.0
2017-Sep-24 08:27N 54°42' W 001°01'0 0.2
2017-Sep-24 07:57N 54°42' W 001°01'0 0.0
2017-Sep-24 07:27N 54°42' W 001°01'0 0.0
2017-Sep-24 06:57N 54°42' W 001°01'0 0.0
2017-Sep-24 06:30N 54°42' W 001°01'0 0.0
2017-Sep-24 05:57N 54°42' W 001°01'0 0.0
2017-Sep-24 05:30N 54°42' W 001°01'0 0.0
2017-Sep-24 05:00N 54°42' W 001°01'0 0.1
2017-Sep-24 04:30N 54°42' W 001°01'0 0.1
2017-Sep-24 04:00N 54°42' W 001°01'0 0.1
2017-Sep-24 03:27N 54°42' W 001°01'0 0.0
2017-Sep-24 03:00N 54°42' W 001°01'0 0.0
2017-Sep-24 02:30N 54°42' W 001°01'0 0.0
2017-Sep-24 02:00N 54°42' W 001°01'0 0.0
2017-Sep-24 01:30N 54°42' W 001°01'0 0.0
2017-Sep-24 01:00N 54°42' W 001°01'0 0.0
2017-Sep-24 00:30N 54°42' W 001°01'0 0.0
2017-Sep-24 00:00N 54°42' W 001°01'0 0.0
2017-Sep-23 23:21N 54°42' W 001°01'0 0.0
2017-Sep-23 22:36N 54°42' W 001°01'0 0.0
2017-Sep-23 22:24N 54°42' W 001°01'0 0.0
2017-Sep-23 21:54N 54°42' W 001°01'0 0.0
2017-Sep-23 21:24N 54°42' W 001°01'0 0.0
2017-Sep-23 20:51N 54°42' W 001°01'235 5.5
2017-Sep-22 01:47N 51°47' E 003°20'0 0.0
2017-Sep-21 23:56N 51°47' E 003°20'0 0.1
2017-Sep-21 23:26N 51°47' E 003°20'0 0.0
2017-Sep-21 22:56N 51°47' E 003°20'0 0.0
2017-Sep-21 22:26N 51°47' E 003°20'0 0.0
2017-Sep-21 21:59N 51°47' E 003°20'0 0.0
2017-Sep-21 21:29N 51°47' E 003°20'0 0.0
2017-Sep-21 20:59N 51°47' E 003°20'0 0.0
2017-Sep-21 19:47N 51°47' E 003°20'0 0.2
2017-Sep-21 19:23N 51°47' E 003°20'0 0.1
2017-Sep-21 18:59N 51°47' E 003°20'0 0.0
2017-Sep-21 18:08N 51°47' E 003°20'0 0.0
2017-Sep-21 13:19N 51°47' E 003°20'310.3
2017-Sep-21 13:00N 51°44' E 003°18'612.5
2017-Sep-21 12:30N 51°38' E 003°22'612.0
2017-Sep-21 12:00N 51°32' E 003°25'611.3
2017-Sep-21 11:30N 51°28' E 003°31'5 9.6
2017-Sep-21 11:00N 51°25' E 003°38'511.2
2017-Sep-21 10:30N 51°22' E 003°45'4 7.2
2017-Sep-21 10:00N 51°20' E 003°49'0 0.4
2017-Sep-21 09:30N 51°20' E 003°49'1 2.4
2017-Sep-21 09:00N 51°18' E 003°50'4 7.9
2017-Sep-21 08:30N 51°14' E 003°49'2 4.2
2017-Sep-21 07:59N 51°12' E 003°48'0 0.0
2017-Sep-21 07:29N 51°12' E 003°48'0 0.0
2017-Sep-21 06:59N 51°12' E 003°48'0 0.0
2017-Sep-21 06:29N 51°12' E 003°48'0 0.0
2017-Sep-21 05:59N 51°12' E 003°48'0 0.0
2017-Sep-21 05:29N 51°12' E 003°48'0 0.0
2017-Sep-21 04:59N 51°12' E 003°48'0 0.0
2017-Sep-21 04:29N 51°12' E 003°48'0 0.0
2017-Sep-21 03:59N 51°12' E 003°48'0 0.0
2017-Sep-21 03:29N 51°12' E 003°48'0 0.0
2017-Sep-21 02:59N 51°12' E 003°48'0 0.0
2017-Sep-21 02:29N 51°12' E 003°48'0 0.0
2017-Sep-21 01:59N 51°12' E 003°48'0 0.0
2017-Sep-21 01:29N 51°12' E 003°48'0 0.0
2017-Sep-21 00:59N 51°12' E 003°48'0 0.0
2017-Sep-21 00:29N 51°12' E 003°48'0 0.0
2017-Sep-20 23:59N 51°12' E 003°48'0 0.0
2017-Sep-20 23:29N 51°12' E 003°48'0 0.0
2017-Sep-20 22:59N 51°12' E 003°48'0 0.0
2017-Sep-20 22:29N 51°12' E 003°48'0 0.0
2017-Sep-20 21:59N 51°12' E 003°48'0 0.0
2017-Sep-20 21:29N 51°12' E 003°48'0 0.0
2017-Sep-20 20:59N 51°12' E 003°48'0 0.0
2017-Sep-20 20:29N 51°12' E 003°48'0 0.0
2017-Sep-20 19:59N 51°12' E 003°48'0 0.0
2017-Sep-20 19:29N 51°12' E 003°48'0 0.0
2017-Sep-20 18:59N 51°12' E 003°48'0 0.0
2017-Sep-20 18:29N 51°12' E 003°48'0 0.0
2017-Sep-20 17:59N 51°12' E 003°48'0 0.0
2017-Sep-20 17:29N 51°12' E 003°48'0 0.0
2017-Sep-20 16:59N 51°12' E 003°48'0 0.0
2017-Sep-20 16:29N 51°12' E 003°48'0 0.0
2017-Sep-20 15:59N 51°12' E 003°48'0 0.0
2017-Sep-20 15:29N 51°12' E 003°48'0 0.0
2017-Sep-20 14:59N 51°12' E 003°48'0 0.0
2017-Sep-20 13:59N 51°12' E 003°48'0 0.0
2017-Sep-20 13:29N 51°12' E 003°48'0 0.0
2017-Sep-20 12:59N 51°12' E 003°48'0 0.0
2017-Sep-20 12:29N 51°12' E 003°48'0 0.0
2017-Sep-20 11:59N 51°12' E 003°48'0 0.0
2017-Sep-20 11:29N 51°12' E 003°48'0 0.0
2017-Sep-20 10:59N 51°12' E 003°48'0 0.0
2017-Sep-20 10:29N 51°12' E 003°48'0 0.0
2017-Sep-20 09:59N 51°12' E 003°48'0 0.0
2017-Sep-20 09:29N 51°12' E 003°48'0 0.0
2017-Sep-20 08:59N 51°12' E 003°48'0 0.0
2017-Sep-20 08:29N 51°12' E 003°48'0 0.0
2017-Sep-20 07:59N 51°12' E 003°48'0 0.0
2017-Sep-20 07:29N 51°12' E 003°48'0 0.0
2017-Sep-20 06:59N 51°12' E 003°48'0 0.0
2017-Sep-20 06:29N 51°12' E 003°48'0 0.0
2017-Sep-20 05:59N 51°12' E 003°48'0 0.0
2017-Sep-20 05:29N 51°12' E 003°48'0 0.0
2017-Sep-20 04:59N 51°12' E 003°48'0 0.0
2017-Sep-20 04:29N 51°12' E 003°48'0 0.0
2017-Sep-20 03:59N 51°12' E 003°48'0 0.0
2017-Sep-20 03:29N 51°12' E 003°48'0 0.0
2017-Sep-20 02:59N 51°12' E 003°48'0 0.0
2017-Sep-20 02:29N 51°12' E 003°48'0 0.0
2017-Sep-20 01:59N 51°12' E 003°48'0 0.0
2017-Sep-20 01:29N 51°12' E 003°48'0 0.0
2017-Sep-20 00:59N 51°12' E 003°48'0 0.0
2017-Sep-20 00:29N 51°12' E 003°48'0 0.0
2017-Sep-19 23:59N 51°12' E 003°48'0 0.0
2017-Sep-19 23:29N 51°12' E 003°48'0 0.0
2017-Sep-19 22:56N 51°12' E 003°48'0 0.0
2017-Sep-19 22:29N 51°12' E 003°48'0 0.0
2017-Sep-19 21:59N 51°12' E 003°48'0 0.0
2017-Sep-19 21:29N 51°12' E 003°48'0 0.0
2017-Sep-19 20:59N 51°12' E 003°48'0 0.0
2017-Sep-19 20:29N 51°12' E 003°48'0 0.0
2017-Sep-19 19:59N 51°12' E 003°48'0 0.0
2017-Sep-19 19:29N 51°12' E 003°48'0 0.0
2017-Sep-19 18:59N 51°12' E 003°48'0 0.0
2017-Sep-19 18:29N 51°12' E 003°48'0 0.0
2017-Sep-19 17:59N 51°12' E 003°48'0 0.0
2017-Sep-19 17:29N 51°12' E 003°48'0 0.0
2017-Sep-19 16:59N 51°12' E 003°48'0 0.0
2017-Sep-19 16:29N 51°12' E 003°48'0 0.0
2017-Sep-19 15:59N 51°12' E 003°48'0 0.0
2017-Sep-19 15:29N 51°12' E 003°48'0 0.0
2017-Sep-19 14:59N 51°12' E 003°48'0 0.0
2017-Sep-19 14:26N 51°12' E 003°48'0 0.0
2017-Sep-19 13:59N 51°12' E 003°48'0 0.0
2017-Sep-19 13:29N 51°12' E 003°48'0 0.0
2017-Sep-19 12:59N 51°12' E 003°48'0 0.0
2017-Sep-19 12:29N 51°12' E 003°48'0 0.0
2017-Sep-19 11:59N 51°12' E 003°48'0 0.0
2017-Sep-19 11:29N 51°12' E 003°48'0 0.0
2017-Sep-19 10:59N 51°12' E 003°48'0 0.1
2017-Sep-19 10:30N 51°12' E 003°48'2 4.4
2017-Sep-19 10:00N 51°15' E 003°49'4 7.1
2017-Sep-19 09:30N 51°18' E 003°50'2 3.6
2017-Sep-19 09:00N 51°20' E 003°49'0 0.1
2017-Sep-19 08:30N 51°20' E 003°49'1 1.7
2017-Sep-19 08:00N 51°21' E 003°49'5 9.7
2017-Sep-19 07:30N 51°23' E 003°42'510.8
2017-Sep-19 07:00N 51°25' E 003°34'4 8.6
2017-Sep-19 06:30N 51°25' E 003°28'510.3
2017-Sep-19 06:00N 51°24' E 003°19'5 9.2
2017-Sep-19 05:30N 51°24' E 003°12'5 9.4
2017-Sep-19 05:00N 51°24' E 003°04'5 9.5
2017-Sep-19 04:30N 51°22' E 002°57'510.2
2017-Sep-19 04:00N 51°22' E 002°49'4 8.0
2017-Sep-19 03:30N 51°23' E 002°43'2 4.6
2017-Sep-19 03:00N 51°26' E 002°44'0 0.8
2017-Sep-19 02:29N 51°26' E 002°45'0 0.6
2017-Sep-19 01:53N 51°26' E 002°44'0 0.4
2017-Sep-19 01:26N 51°26' E 002°44'2 4.8
2017-Sep-19 00:58N 51°24' E 002°42'4 8.0
2017-Sep-19 00:30N 51°22' E 002°37'4 7.6
2017-Sep-19 00:00N 51°22' E 002°31'4 7.5
2017-Sep-18 23:30N 51°21' E 002°25'4 7.2
2017-Sep-18 23:00N 51°18' E 002°21'4 7.3
2017-Sep-18 22:30N 51°16' E 002°16'4 8.5
2017-Sep-18 22:00N 51°14' E 002°10'5 9.2
2017-Sep-18 21:30N 51°12' E 002°04'4 8.1
2017-Sep-18 21:00N 51°10' E 001°58'4 7.9
2017-Sep-18 20:30N 51°08' E 001°52'4 8.5
2017-Sep-18 20:00N 51°06' E 001°47'4 8.2
2017-Sep-18 19:30N 51°03' E 001°42'4 8.3
2017-Sep-18 18:58N 50°60' E 001°37'4 8.2
2017-Sep-18 18:30N 50°57' E 001°34'4 8.1
2017-Sep-18 18:00N 50°54' E 001°29'8510.1
2017-Sep-18 09:35N 49°48' E 000°06'112.7
2017-Sep-18 09:30N 49°47' E 000°05'613.0
2017-Sep-18 09:00N 49°41' E 000°00'713.3
2017-Sep-18 08:30N 49°35' W 000°04'611.8
2017-Sep-18 08:00N 49°29' W 000°06'511.0
2017-Sep-18 07:30N 49°27' E 000°02'611.5
2017-Sep-18 07:00N 49°26' E 000°10'5 9.9
2017-Sep-18 06:30N 49°26' E 000°18'4 7.9
2017-Sep-18 06:00N 49°27' E 000°24'5 9.0
2017-Sep-18 05:26N 49°29' E 000°31'1 0.1
2017-Sep-17 07:55N 49°28' E 000°32'3 4.4
2017-Sep-17 07:18N 49°29' E 000°28'414.6
2017-Sep-17 07:00N 49°27' E 000°22'714.3
2017-Sep-17 06:30N 49°26' E 000°11'713.2
2017-Sep-17 06:00N 49°27' E 000°02'612.3
2017-Sep-17 05:30N 49°29' W 000°07'5 9.8
2017-Sep-17 05:00N 49°30' W 000°15'2 4.2
2017-Sep-17 04:30N 49°30' W 000°12'4 7.9
2017-Sep-17 04:00N 49°33' W 000°08'612.8
2017-Sep-17 03:30N 49°39' W 000°03'713.1
2017-Sep-17 03:00N 49°44' E 000°02'5013.7
2017-Sep-16 23:21N 50°29' E 000°38'413.1
2017-Sep-16 23:00N 50°33' E 000°36'612.0
2017-Sep-16 22:30N 50°37' E 000°43'713.2
2017-Sep-16 22:00N 50°41' E 000°51'612.6
2017-Sep-16 21:30N 50°45' E 000°59'612.1
2017-Sep-16 20:58N 50°48' E 001°08'511.7
2017-Sep-16 20:30N 50°52' E 001°15'611.4
2017-Sep-16 20:00N 50°56' E 001°20'611.5
2017-Sep-16 19:30N 51°01' E 001°26'612.4
2017-Sep-16 19:00N 51°05' E 001°33'612.9
2017-Sep-16 18:30N 51°10' E 001°40'713.4
2017-Sep-16 18:00N 51°15' E 001°47'714.1
2017-Sep-16 17:30N 51°20' E 001°54'713.3
2017-Sep-16 17:01N 51°25' E 002°01'612.7
2017-Sep-16 16:30N 51°22' E 002°10'612.9
2017-Sep-16 16:01N 51°21' E 002°20'713.8
2017-Sep-16 15:30N 51°23' E 002°31'713.4
2017-Sep-16 15:00N 51°22' E 002°41'611.7
2017-Sep-16 14:30N 51°22' E 002°51'612.8
2017-Sep-16 14:00N 51°24' E 003°01'612.7
2017-Sep-16 13:30N 51°24' E 003°11'713.4
2017-Sep-16 13:00N 51°25' E 003°21'714.1
2017-Sep-16 12:30N 51°26' E 003°33'611.9
2017-Sep-16 12:00N 51°25' E 003°42'612.5
2017-Sep-16 11:30N 51°21' E 003°49'611.8
2017-Sep-16 11:00N 51°24' E 003°57'3 6.4
2017-Sep-16 10:30N 51°24' E 004°02'4 8.9
2017-Sep-16 10:00N 51°23' E 004°09'4 7.5
2017-Sep-16 09:30N 51°21' E 004°14'2 3.7
2017-Sep-16 09:00N 51°21' E 004°17'0 0.0
2017-Sep-16 08:31N 51°21' E 004°17'1 2.2
2017-Sep-16 08:00N 51°20' E 004°18'4 7.2
2017-Sep-16 07:30N 51°17' E 004°21'1 2.0
2017-Sep-16 07:00N 51°16' E 004°21'0 0.0
2017-Sep-16 06:30N 51°16' E 004°21'0 0.0
2017-Sep-16 06:00N 51°16' E 004°21'0 0.0
2017-Sep-16 05:30N 51°16' E 004°21'0 0.0
2017-Sep-16 05:00N 51°16' E 004°21'0 0.0
2017-Sep-16 04:30N 51°16' E 004°21'0 0.0
2017-Sep-16 03:54N 51°16' E 004°21'0 0.0
2017-Sep-16 03:30N 51°16' E 004°21'0 0.0
2017-Sep-16 03:00N 51°16' E 004°21'0 0.0
2017-Sep-16 02:30N 51°16' E 004°21'0 0.0
2017-Sep-16 02:00N 51°16' E 004°21'0 0.0
2017-Sep-16 01:30N 51°16' E 004°21'0 0.0
2017-Sep-16 01:00N 51°16' E 004°21'0 0.0
2017-Sep-16 00:30N 51°16' E 004°21'0 0.0
2017-Sep-16 00:00N 51°16' E 004°21'0 0.0
2017-Sep-15 23:30N 51°16' E 004°21'0 0.0
2017-Sep-15 22:57N 51°16' E 004°21'0 0.0
2017-Sep-15 22:30N 51°16' E 004°21'  

Dump ship's entire track history